sensor_id;sensor_type;location;lat;lon;timestamp;P1;durP1;ratioP1;P2;durP2;ratioP2
30303;SDS011;17112;48.636;10.152;2023-02-15T00:01:45;35.67;;;11.32;;
30303;SDS011;17112;48.636;10.152;2023-02-15T00:04:12;49.28;;;10.85;;
30303;SDS011;17112;48.636;10.152;2023-02-15T00:06:39;30.67;;;10.73;;
30303;SDS011;17112;48.636;10.152;2023-02-15T00:09:05;43.58;;;10.75;;
30303;SDS011;17112;48.636;10.152;2023-02-15T00:11:31;43.42;;;11.15;;
30303;SDS011;17112;48.636;10.152;2023-02-15T00:16:36;32.75;;;9.90;;
30303;SDS011;17112;48.636;10.152;2023-02-15T00:19:03;77.55;;;11.90;;
30303;SDS011;17112;48.636;10.152;2023-02-15T00:21:30;49.10;;;10.90;;
30303;SDS011;17112;48.636;10.152;2023-02-15T00:23:57;34.92;;;10.93;;
30303;SDS011;17112;48.636;10.152;2023-02-15T00:26:25;37.70;;;10.63;;
30303;SDS011;17112;48.636;10.152;2023-02-15T00:28:51;61.70;;;10.77;;
30303;SDS011;17112;48.636;10.152;2023-02-15T00:31:17;35.63;;;11.68;;
30303;SDS011;17112;48.636;10.152;2023-02-15T00:33:42;52.35;;;11.65;;
30303;SDS011;17112;48.636;10.152;2023-02-15T00:36:08;45.90;;;10.38;;
30303;SDS011;17112;48.636;10.152;2023-02-15T00:38:35;49.90;;;11.02;;
30303;SDS011;17112;48.636;10.152;2023-02-15T00:41:02;41.97;;;11.20;;
30303;SDS011;17112;48.636;10.152;2023-02-15T00:43:30;39.28;;;10.70;;
30303;SDS011;17112;48.636;10.152;2023-02-15T00:45:57;37.88;;;10.98;;
30303;SDS011;17112;48.636;10.152;2023-02-15T00:48:24;34.65;;;10.77;;
30303;SDS011;17112;48.636;10.152;2023-02-15T00:50:51;49.83;;;10.13;;
30303;SDS011;17112;48.636;10.152;2023-02-15T00:53:18;35.25;;;10.80;;
30303;SDS011;17112;48.636;10.152;2023-02-15T00:55:44;62.08;;;11.10;;
30303;SDS011;17112;48.636;10.152;2023-02-15T00:58:10;39.17;;;10.57;;
30303;SDS011;17112;48.636;10.152;2023-02-15T01:00:37;48.45;;;11.50;;
30303;SDS011;17112;48.636;10.152;2023-02-15T01:03:04;50.53;;;12.10;;
30303;SDS011;17112;48.636;10.152;2023-02-15T01:05:30;25.23;;;10.35;;
30303;SDS011;17112;48.636;10.152;2023-02-15T01:07:57;16.75;;;10.77;;
30303;SDS011;17112;48.636;10.152;2023-02-15T01:10:23;59.45;;;11.25;;
30303;SDS011;17112;48.636;10.152;2023-02-15T01:12:50;36.78;;;11.30;;
30303;SDS011;17112;48.636;10.152;2023-02-15T01:15:16;64.05;;;10.98;;
30303;SDS011;17112;48.636;10.152;2023-02-15T01:17:41;28.65;;;11.60;;
30303;SDS011;17112;48.636;10.152;2023-02-15T01:20:09;25.40;;;10.68;;
30303;SDS011;17112;48.636;10.152;2023-02-15T01:22:35;33.08;;;11.10;;
30303;SDS011;17112;48.636;10.152;2023-02-15T01:25:00;53.15;;;11.18;;
30303;SDS011;17112;48.636;10.152;2023-02-15T01:27:26;30.23;;;10.35;;
30303;SDS011;17112;48.636;10.152;2023-02-15T01:29:55;27.65;;;11.02;;
30303;SDS011;17112;48.636;10.152;2023-02-15T01:32:21;44.78;;;11.65;;
30303;SDS011;17112;48.636;10.152;2023-02-15T01:34:46;29.88;;;10.15;;
30303;SDS011;17112;48.636;10.152;2023-02-15T01:37:12;41.63;;;10.65;;
30303;SDS011;17112;48.636;10.152;2023-02-15T01:39:37;33.33;;;10.82;;
30303;SDS011;17112;48.636;10.152;2023-02-15T01:42:03;48.65;;;10.90;;
30303;SDS011;17112;48.636;10.152;2023-02-15T01:50:06;21.15;;;9.77;;
30303;SDS011;17112;48.636;10.152;2023-02-15T01:52:40;16.52;;;9.57;;
30303;SDS011;17112;48.636;10.152;2023-02-15T01:55:15;23.77;;;9.93;;
30303;SDS011;17112;48.636;10.152;2023-02-15T01:57:41;45.17;;;10.27;;
30303;SDS011;17112;48.636;10.152;2023-02-15T02:00:08;41.58;;;9.77;;
30303;SDS011;17112;48.636;10.152;2023-02-15T02:02:34;14.07;;;9.77;;
30303;SDS011;17112;48.636;10.152;2023-02-15T02:05:01;18.20;;;10.50;;
30303;SDS011;17112;48.636;10.152;2023-02-15T02:07:32;21.27;;;10.35;;
30303;SDS011;17112;48.636;10.152;2023-02-15T02:10:01;26.60;;;11.15;;
30303;SDS011;17112;48.636;10.152;2023-02-15T02:12:28;26.73;;;11.43;;
30303;SDS011;17112;48.636;10.152;2023-02-15T02:14:54;35.97;;;10.18;;
30303;SDS011;17112;48.636;10.152;2023-02-15T02:37:03;26.33;;;8.68;;
30303;SDS011;17112;48.636;10.152;2023-02-15T02:45:09;31.45;;;9.93;;
30303;SDS011;17112;48.636;10.152;2023-02-15T02:50:08;27.42;;;9.23;;
30303;SDS011;17112;48.636;10.152;2023-02-15T02:52:42;31.42;;;8.73;;
30303;SDS011;17112;48.636;10.152;2023-02-15T03:00:20;29.15;;;9.90;;
30303;SDS011;17112;48.636;10.152;2023-02-15T03:02:48;34.13;;;9.02;;
30303;SDS011;17112;48.636;10.152;2023-02-15T03:05:21;24.10;;;9.32;;
30303;SDS011;17112;48.636;10.152;2023-02-15T03:07:51;27.35;;;9.20;;
30303;SDS011;17112;48.636;10.152;2023-02-15T03:10:22;18.63;;;9.38;;
30303;SDS011;17112;48.636;10.152;2023-02-15T03:12:49;19.33;;;8.75;;
30303;SDS011;17112;48.636;10.152;2023-02-15T03:15:26;31.05;;;9.27;;
30303;SDS011;17112;48.636;10.152;2023-02-15T03:18:17;18.02;;;8.80;;
30303;SDS011;17112;48.636;10.152;2023-02-15T03:20:45;35.22;;;9.07;;
30303;SDS011;17112;48.636;10.152;2023-02-15T03:23:20;33.55;;;8.95;;
30303;SDS011;17112;48.636;10.152;2023-02-15T03:25:50;24.52;;;8.23;;
30303;SDS011;17112;48.636;10.152;2023-02-15T03:28:25;13.10;;;7.93;;
30303;SDS011;17112;48.636;10.152;2023-02-15T03:30:58;24.27;;;9.30;;
30303;SDS011;17112;48.636;10.152;2023-02-15T03:33:26;16.15;;;8.30;;
30303;SDS011;17112;48.636;10.152;2023-02-15T03:35:55;14.10;;;9.00;;
30303;SDS011;17112;48.636;10.152;2023-02-15T03:38:36;19.27;;;9.07;;
30303;SDS011;17112;48.636;10.152;2023-02-15T03:41:14;18.25;;;8.07;;
30303;SDS011;17112;48.636;10.152;2023-02-15T03:49:07;10.45;;;7.07;;
30303;SDS011;17112;48.636;10.152;2023-02-15T03:51:48;17.48;;;8.82;;
30303;SDS011;17112;48.636;10.152;2023-02-15T03:54:26;20.65;;;8.60;;
30303;SDS011;17112;48.636;10.152;2023-02-15T03:57:14;14.45;;;8.20;;
30303;SDS011;17112;48.636;10.152;2023-02-15T04:00:22;19.35;;;8.23;;
30303;SDS011;17112;48.636;10.152;2023-02-15T04:05:57;19.30;;;8.05;;
30303;SDS011;17112;48.636;10.152;2023-02-15T04:08:22;20.52;;;8.55;;
30303;SDS011;17112;48.636;10.152;2023-02-15T04:11:08;16.27;;;8.35;;
30303;SDS011;17112;48.636;10.152;2023-02-15T04:13:33;27.15;;;7.63;;
30303;SDS011;17112;48.636;10.152;2023-02-15T04:15:59;27.08;;;8.50;;
30303;SDS011;17112;48.636;10.152;2023-02-15T04:18:27;21.25;;;8.18;;
30303;SDS011;17112;48.636;10.152;2023-02-15T04:21:22;19.60;;;7.97;;
30303;SDS011;17112;48.636;10.152;2023-02-15T04:24:08;20.05;;;8.10;;
30303;SDS011;17112;48.636;10.152;2023-02-15T04:26:53;18.08;;;7.65;;
30303;SDS011;17112;48.636;10.152;2023-02-15T04:29:19;16.60;;;8.57;;
30303;SDS011;17112;48.636;10.152;2023-02-15T04:31:46;25.75;;;7.43;;
30303;SDS011;17112;48.636;10.152;2023-02-15T04:34:12;21.02;;;8.55;;
30303;SDS011;17112;48.636;10.152;2023-02-15T04:36:38;20.65;;;7.72;;
30303;SDS011;17112;48.636;10.152;2023-02-15T04:39:04;34.97;;;8.52;;
30303;SDS011;17112;48.636;10.152;2023-02-15T04:41:31;38.58;;;8.68;;
30303;SDS011;17112;48.636;10.152;2023-02-15T04:43:57;21.58;;;8.77;;
30303;SDS011;17112;48.636;10.152;2023-02-15T04:46:24;33.47;;;8.68;;
30303;SDS011;17112;48.636;10.152;2023-02-15T04:48:50;15.50;;;8.25;;
30303;SDS011;17112;48.636;10.152;2023-02-15T04:51:15;21.50;;;8.20;;
30303;SDS011;17112;48.636;10.152;2023-02-15T04:53:41;20.65;;;7.95;;
30303;SDS011;17112;48.636;10.152;2023-02-15T04:56:07;25.88;;;8.38;;
30303;SDS011;17112;48.636;10.152;2023-02-15T04:58:32;21.95;;;8.70;;
30303;SDS011;17112;48.636;10.152;2023-02-15T05:00:59;20.90;;;7.53;;
30303;SDS011;17112;48.636;10.152;2023-02-15T05:03:24;15.68;;;8.10;;
30303;SDS011;17112;48.636;10.152;2023-02-15T05:05:50;21.63;;;8.43;;
30303;SDS011;17112;48.636;10.152;2023-02-15T05:08:16;16.67;;;7.70;;
30303;SDS011;17112;48.636;10.152;2023-02-15T05:10:42;17.25;;;8.00;;
30303;SDS011;17112;48.636;10.152;2023-02-15T05:13:07;22.88;;;8.13;;
30303;SDS011;17112;48.636;10.152;2023-02-15T05:15:33;19.35;;;7.53;;
30303;SDS011;17112;48.636;10.152;2023-02-15T05:17:59;18.83;;;8.30;;
30303;SDS011;17112;48.636;10.152;2023-02-15T05:20:26;20.35;;;8.40;;
30303;SDS011;17112;48.636;10.152;2023-02-15T05:22:54;18.83;;;8.57;;
30303;SDS011;17112;48.636;10.152;2023-02-15T05:25:20;13.55;;;7.38;;
30303;SDS011;17112;48.636;10.152;2023-02-15T05:30:46;10.75;;;5.88;;
30303;SDS011;17112;48.636;10.152;2023-02-15T05:33:13;13.80;;;6.65;;
30303;SDS011;17112;48.636;10.152;2023-02-15T05:35:38;16.50;;;7.05;;
30303;SDS011;17112;48.636;10.152;2023-02-15T05:38:04;15.88;;;7.05;;
30303;SDS011;17112;48.636;10.152;2023-02-15T05:40:30;22.20;;;7.22;;
30303;SDS011;17112;48.636;10.152;2023-02-15T05:42:55;29.67;;;6.93;;
30303;SDS011;17112;48.636;10.152;2023-02-15T05:45:22;11.80;;;7.22;;
30303;SDS011;17112;48.636;10.152;2023-02-15T05:47:48;22.67;;;7.55;;
30303;SDS011;17112;48.636;10.152;2023-02-15T05:50:13;18.33;;;7.78;;
30303;SDS011;17112;48.636;10.152;2023-02-15T05:52:39;17.20;;;7.25;;
30303;SDS011;17112;48.636;10.152;2023-02-15T05:55:05;17.95;;;7.43;;
30303;SDS011;17112;48.636;10.152;2023-02-15T05:57:31;19.75;;;7.45;;
30303;SDS011;17112;48.636;10.152;2023-02-15T05:59:57;21.73;;;7.35;;
30303;SDS011;17112;48.636;10.152;2023-02-15T06:02:23;18.25;;;6.63;;
30303;SDS011;17112;48.636;10.152;2023-02-15T06:04:49;28.50;;;7.60;;
30303;SDS011;17112;48.636;10.152;2023-02-15T06:07:14;19.05;;;7.25;;
30303;SDS011;17112;48.636;10.152;2023-02-15T06:09:40;13.45;;;6.93;;
30303;SDS011;17112;48.636;10.152;2023-02-15T06:12:05;25.08;;;7.63;;
30303;SDS011;17112;48.636;10.152;2023-02-15T06:14:31;23.40;;;7.78;;
30303;SDS011;17112;48.636;10.152;2023-02-15T06:16:57;15.73;;;7.97;;
30303;SDS011;17112;48.636;10.152;2023-02-15T06:19:22;14.40;;;7.93;;
30303;SDS011;17112;48.636;10.152;2023-02-15T06:21:48;21.92;;;7.63;;
30303;SDS011;17112;48.636;10.152;2023-02-15T06:24:15;13.65;;;7.00;;
30303;SDS011;17112;48.636;10.152;2023-02-15T06:26:40;18.10;;;7.35;;
30303;SDS011;17112;48.636;10.152;2023-02-15T06:29:06;21.88;;;7.28;;
30303;SDS011;17112;48.636;10.152;2023-02-15T06:31:32;39.78;;;8.43;;
30303;SDS011;17112;48.636;10.152;2023-02-15T06:33:57;24.00;;;7.70;;
30303;SDS011;17112;48.636;10.152;2023-02-15T06:36:29;15.68;;;7.22;;
30303;SDS011;17112;48.636;10.152;2023-02-15T06:38:56;29.55;;;7.22;;
30303;SDS011;17112;48.636;10.152;2023-02-15T06:41:22;26.88;;;8.52;;
30303;SDS011;17112;48.636;10.152;2023-02-15T06:43:48;18.30;;;6.32;;
30303;SDS011;17112;48.636;10.152;2023-02-15T06:46:14;20.30;;;7.03;;
30303;SDS011;17112;48.636;10.152;2023-02-15T06:48:40;17.80;;;7.80;;
30303;SDS011;17112;48.636;10.152;2023-02-15T06:51:06;22.52;;;8.18;;
30303;SDS011;17112;48.636;10.152;2023-02-15T06:53:31;23.05;;;9.27;;
30303;SDS011;17112;48.636;10.152;2023-02-15T06:56:05;27.55;;;9.27;;
30303;SDS011;17112;48.636;10.152;2023-02-15T06:58:33;29.45;;;9.45;;
30303;SDS011;17112;48.636;10.152;2023-02-15T07:01:06;24.55;;;8.65;;
30303;SDS011;17112;48.636;10.152;2023-02-15T07:03:33;19.90;;;10.52;;
30303;SDS011;17112;48.636;10.152;2023-02-15T07:05:59;19.88;;;8.65;;
30303;SDS011;17112;48.636;10.152;2023-02-15T07:08:26;15.38;;;8.18;;
30303;SDS011;17112;48.636;10.152;2023-02-15T07:10:53;34.03;;;7.75;;
30303;SDS011;17112;48.636;10.152;2023-02-15T07:13:40;12.48;;;7.20;;
30303;SDS011;17112;48.636;10.152;2023-02-15T07:16:07;28.15;;;7.60;;
30303;SDS011;17112;48.636;10.152;2023-02-15T07:18:34;16.13;;;7.55;;
30303;SDS011;17112;48.636;10.152;2023-02-15T07:20:59;16.77;;;7.60;;
30303;SDS011;17112;48.636;10.152;2023-02-15T07:23:25;15.52;;;6.70;;
30303;SDS011;17112;48.636;10.152;2023-02-15T07:26:00;21.38;;;7.32;;
30303;SDS011;17112;48.636;10.152;2023-02-15T07:28:26;18.13;;;7.13;;
30303;SDS011;17112;48.636;10.152;2023-02-15T07:30:52;19.70;;;7.40;;
30303;SDS011;17112;48.636;10.152;2023-02-15T07:33:18;22.27;;;7.93;;
30303;SDS011;17112;48.636;10.152;2023-02-15T07:35:50;16.83;;;7.90;;
30303;SDS011;17112;48.636;10.152;2023-02-15T07:38:18;16.23;;;7.93;;
30303;SDS011;17112;48.636;10.152;2023-02-15T07:40:43;22.67;;;8.60;;
30303;SDS011;17112;48.636;10.152;2023-02-15T07:43:09;19.23;;;8.23;;
30303;SDS011;17112;48.636;10.152;2023-02-15T07:45:36;17.30;;;8.32;;
30303;SDS011;17112;48.636;10.152;2023-02-15T07:48:02;24.73;;;8.48;;
30303;SDS011;17112;48.636;10.152;2023-02-15T07:50:29;17.48;;;7.85;;
30303;SDS011;17112;48.636;10.152;2023-02-15T07:52:55;15.27;;;8.65;;
30303;SDS011;17112;48.636;10.152;2023-02-15T07:55:22;17.75;;;7.63;;
30303;SDS011;17112;48.636;10.152;2023-02-15T07:57:48;13.95;;;7.68;;
30303;SDS011;17112;48.636;10.152;2023-02-15T08:00:15;17.30;;;7.90;;
30303;SDS011;17112;48.636;10.152;2023-02-15T08:02:49;26.35;;;8.20;;
30303;SDS011;17112;48.636;10.152;2023-02-15T08:05:35;16.88;;;8.93;;
30303;SDS011;17112;48.636;10.152;2023-02-15T08:08:01;26.23;;;9.57;;
30303;SDS011;17112;48.636;10.152;2023-02-15T08:10:27;18.88;;;9.95;;
30303;SDS011;17112;48.636;10.152;2023-02-15T08:13:12;20.92;;;9.23;;
30303;SDS011;17112;48.636;10.152;2023-02-15T08:15:38;33.47;;;13.43;;
30303;SDS011;17112;48.636;10.152;2023-02-15T08:18:04;19.80;;;11.27;;
30303;SDS011;17112;48.636;10.152;2023-02-15T08:20:29;19.10;;;10.93;;
30303;SDS011;17112;48.636;10.152;2023-02-15T08:22:55;20.65;;;10.93;;
30303;SDS011;17112;48.636;10.152;2023-02-15T08:25:21;22.98;;;10.38;;
30303;SDS011;17112;48.636;10.152;2023-02-15T08:27:46;25.65;;;12.68;;
30303;SDS011;17112;48.636;10.152;2023-02-15T08:30:12;33.15;;;13.75;;
30303;SDS011;17112;48.636;10.152;2023-02-15T08:32:39;34.45;;;13.35;;
30303;SDS011;17112;48.636;10.152;2023-02-15T08:35:05;32.72;;;14.15;;
30303;SDS011;17112;48.636;10.152;2023-02-15T08:37:31;41.95;;;15.65;;
30303;SDS011;17112;48.636;10.152;2023-02-15T08:39:57;46.03;;;16.30;;
30303;SDS011;17112;48.636;10.152;2023-02-15T08:42:22;45.05;;;16.80;;
30303;SDS011;17112;48.636;10.152;2023-02-15T08:44:48;29.23;;;13.07;;
30303;SDS011;17112;48.636;10.152;2023-02-15T08:47:15;38.08;;;15.68;;
30303;SDS011;17112;48.636;10.152;2023-02-15T08:49:41;30.67;;;15.38;;
30303;SDS011;17112;48.636;10.152;2023-02-15T08:52:06;46.53;;;17.30;;
30303;SDS011;17112;48.636;10.152;2023-02-15T08:54:32;41.63;;;17.38;;
30303;SDS011;17112;48.636;10.152;2023-02-15T08:56:58;41.55;;;16.23;;
30303;SDS011;17112;48.636;10.152;2023-02-15T08:59:24;43.50;;;16.63;;
30303;SDS011;17112;48.636;10.152;2023-02-15T09:01:52;36.63;;;16.00;;
30303;SDS011;17112;48.636;10.152;2023-02-15T09:04:18;38.05;;;15.07;;
30303;SDS011;17112;48.636;10.152;2023-02-15T09:06:46;32.67;;;14.63;;
30303;SDS011;17112;48.636;10.152;2023-02-15T09:09:12;29.02;;;14.55;;
30303;SDS011;17112;48.636;10.152;2023-02-15T09:11:40;28.25;;;14.50;;
30303;SDS011;17112;48.636;10.152;2023-02-15T09:14:08;31.58;;;14.32;;
30303;SDS011;17112;48.636;10.152;2023-02-15T09:16:39;27.98;;;12.73;;
30303;SDS011;17112;48.636;10.152;2023-02-15T09:19:06;22.80;;;12.00;;
30303;SDS011;17112;48.636;10.152;2023-02-15T09:21:32;20.98;;;11.38;;
30303;SDS011;17112;48.636;10.152;2023-02-15T09:24:00;18.30;;;10.73;;
30303;SDS011;17112;48.636;10.152;2023-02-15T09:26:28;23.55;;;10.60;;
30303;SDS011;17112;48.636;10.152;2023-02-15T09:28:56;12.77;;;8.93;;
30303;SDS011;17112;48.636;10.152;2023-02-15T09:31:27;18.23;;;9.55;;
30303;SDS011;17112;48.636;10.152;2023-02-15T09:33:54;16.80;;;10.05;;
30303;SDS011;17112;48.636;10.152;2023-02-15T09:36:22;19.50;;;10.90;;
30303;SDS011;17112;48.636;10.152;2023-02-15T09:39:01;17.95;;;10.07;;
30303;SDS011;17112;48.636;10.152;2023-02-15T09:41:40;19.23;;;10.83;;
30303;SDS011;17112;48.636;10.152;2023-02-15T09:53:08;18.00;;;11.50;;
30303;SDS011;17112;48.636;10.152;2023-02-15T10:10:32;18.77;;;11.15;;
30303;SDS011;17112;48.636;10.152;2023-02-15T10:13:35;19.77;;;11.55;;
30303;SDS011;17112;48.636;10.152;2023-02-15T10:21:38;15.43;;;10.63;;
30303;SDS011;17112;48.636;10.152;2023-02-15T10:26:50;19.92;;;11.70;;
30303;SDS011;17112;48.636;10.152;2023-02-15T10:32:22;22.63;;;12.27;;
30303;SDS011;17112;48.636;10.152;2023-02-15T10:40:22;21.60;;;11.93;;
30303;SDS011;17112;48.636;10.152;2023-02-15T10:53:15;24.25;;;15.20;;
30303;SDS011;17112;48.636;10.152;2023-02-15T10:55:50;25.35;;;14.98;;
30303;SDS011;17112;48.636;10.152;2023-02-15T11:01:22;24.83;;;14.30;;
30303;SDS011;17112;48.636;10.152;2023-02-15T11:06:43;35.67;;;20.05;;
30303;SDS011;17112;48.636;10.152;2023-02-15T11:09:16;30.08;;;16.40;;
30303;SDS011;17112;48.636;10.152;2023-02-15T11:11:47;26.67;;;15.82;;
30303;SDS011;17112;48.636;10.152;2023-02-15T11:14:17;28.42;;;15.65;;
30303;SDS011;17112;48.636;10.152;2023-02-15T11:17:02;31.88;;;17.10;;
30303;SDS011;17112;48.636;10.152;2023-02-15T11:19:46;32.83;;;17.10;;
30303;SDS011;17112;48.636;10.152;2023-02-15T11:22:36;33.30;;;16.48;;
30303;SDS011;17112;48.636;10.152;2023-02-15T11:25:06;33.70;;;18.20;;
30303;SDS011;17112;48.636;10.152;2023-02-15T11:27:42;35.40;;;18.67;;
30303;SDS011;17112;48.636;10.152;2023-02-15T11:32:52;35.85;;;19.40;;
30303;SDS011;17112;48.636;10.152;2023-02-15T11:38:28;41.13;;;21.40;;
30303;SDS011;17112;48.636;10.152;2023-02-15T11:40:58;36.75;;;20.67;;
30303;SDS011;17112;48.636;10.152;2023-02-15T11:43:49;38.45;;;19.98;;
30303;SDS011;17112;48.636;10.152;2023-02-15T11:46:36;37.92;;;17.85;;
30303;SDS011;17112;48.636;10.152;2023-02-15T11:49:02;41.88;;;20.08;;
30303;SDS011;17112;48.636;10.152;2023-02-15T11:51:29;36.15;;;19.17;;
30303;SDS011;17112;48.636;10.152;2023-02-15T11:53:55;35.33;;;19.02;;
30303;SDS011;17112;48.636;10.152;2023-02-15T11:56:22;33.13;;;18.58;;
30303;SDS011;17112;48.636;10.152;2023-02-15T12:01:35;27.05;;;15.25;;
30303;SDS011;17112;48.636;10.152;2023-02-15T12:06:51;29.23;;;15.93;;
30303;SDS011;17112;48.636;10.152;2023-02-15T12:09:38;30.67;;;16.45;;
30303;SDS011;17112;48.636;10.152;2023-02-15T12:12:28;40.45;;;21.15;;
30303;SDS011;17112;48.636;10.152;2023-02-15T12:14:59;56.25;;;29.23;;
30303;SDS011;17112;48.636;10.152;2023-02-15T12:17:26;71.80;;;32.78;;
30303;SDS011;17112;48.636;10.152;2023-02-15T12:19:57;39.13;;;21.42;;
30303;SDS011;17112;48.636;10.152;2023-02-15T12:22:34;161.55;;;65.93;;
30303;SDS011;17112;48.636;10.152;2023-02-15T12:25:03;72.00;;;36.50;;
30303;SDS011;17112;48.636;10.152;2023-02-15T12:27:50;46.30;;;24.70;;
30303;SDS011;17112;48.636;10.152;2023-02-15T12:30:35;51.92;;;27.15;;
30303;SDS011;17112;48.636;10.152;2023-02-15T12:33:22;44.58;;;22.00;;
30303;SDS011;17112;48.636;10.152;2023-02-15T12:35:50;35.35;;;18.75;;
30303;SDS011;17112;48.636;10.152;2023-02-15T12:38:42;35.78;;;19.38;;
30303;SDS011;17112;48.636;10.152;2023-02-15T12:41:24;33.22;;;18.63;;
30303;SDS011;17112;48.636;10.152;2023-02-15T12:44:04;33.88;;;18.70;;
30303;SDS011;17112;48.636;10.152;2023-02-15T12:46:32;88.70;;;36.78;;
30303;SDS011;17112;48.636;10.152;2023-02-15T12:49:14;52.05;;;25.90;;
30303;SDS011;17112;48.636;10.152;2023-02-15T12:51:45;42.80;;;23.23;;
30303;SDS011;17112;48.636;10.152;2023-02-15T12:56:49;51.65;;;23.67;;
30303;SDS011;17112;48.636;10.152;2023-02-15T12:59:15;41.00;;;21.73;;
30303;SDS011;17112;48.636;10.152;2023-02-15T13:01:41;41.20;;;22.48;;
30303;SDS011;17112;48.636;10.152;2023-02-15T13:04:29;47.78;;;23.38;;
30303;SDS011;17112;48.636;10.152;2023-02-15T13:07:01;40.85;;;22.48;;
30303;SDS011;17112;48.636;10.152;2023-02-15T13:11:56;41.58;;;22.13;;
30303;SDS011;17112;48.636;10.152;2023-02-15T13:14:34;43.13;;;22.45;;
30303;SDS011;17112;48.636;10.152;2023-02-15T13:17:02;42.83;;;23.55;;
30303;SDS011;17112;48.636;10.152;2023-02-15T13:22:16;49.53;;;24.77;;
30303;SDS011;17112;48.636;10.152;2023-02-15T13:24:53;50.30;;;24.35;;
30303;SDS011;17112;48.636;10.152;2023-02-15T13:27:23;48.33;;;20.30;;
30303;SDS011;17112;48.636;10.152;2023-02-15T13:29:56;46.58;;;23.33;;
30303;SDS011;17112;48.636;10.152;2023-02-15T13:34:54;47.97;;;23.63;;
30303;SDS011;17112;48.636;10.152;2023-02-15T13:37:42;46.10;;;24.02;;
30303;SDS011;17112;48.636;10.152;2023-02-15T13:40:37;59.10;;;27.67;;
30303;SDS011;17112;48.636;10.152;2023-02-15T13:57:05;98.53;;;42.72;;
30303;SDS011;17112;48.636;10.152;2023-02-15T14:02:34;165.00;;;66.90;;
30303;SDS011;17112;48.636;10.152;2023-02-15T14:13:42;90.55;;;41.08;;
30303;SDS011;17112;48.636;10.152;2023-02-15T14:16:20;64.65;;;32.80;;
30303;SDS011;17112;48.636;10.152;2023-02-15T14:18:51;57.08;;;27.95;;
30303;SDS011;17112;48.636;10.152;2023-02-15T14:30:20;50.42;;;25.95;;
30303;SDS011;17112;48.636;10.152;2023-02-15T14:35:29;54.67;;;27.75;;
30303;SDS011;17112;48.636;10.152;2023-02-15T14:38:01;59.88;;;28.92;;
30303;SDS011;17112;48.636;10.152;2023-02-15T14:48:38;44.38;;;22.33;;
30303;SDS011;17112;48.636;10.152;2023-02-15T14:54:56;45.22;;;23.77;;
30303;SDS011;17112;48.636;10.152;2023-02-15T15:04:55;43.25;;;25.02;;
30303;SDS011;17112;48.636;10.152;2023-02-15T15:07:28;51.45;;;26.55;;
30303;SDS011;17112;48.636;10.152;2023-02-15T15:12:48;52.92;;;26.13;;
30303;SDS011;17112;48.636;10.152;2023-02-15T15:25:40;47.25;;;24.48;;
30303;SDS011;17112;48.636;10.152;2023-02-15T15:28:06;42.38;;;24.48;;
30303;SDS011;17112;48.636;10.152;2023-02-15T15:35:36;46.80;;;25.20;;
30303;SDS011;17112;48.636;10.152;2023-02-15T15:49:54;45.05;;;24.05;;
30303;SDS011;17112;48.636;10.152;2023-02-15T15:52:22;45.22;;;24.63;;
30303;SDS011;17112;48.636;10.152;2023-02-15T15:54:51;45.42;;;24.80;;
30303;SDS011;17112;48.636;10.152;2023-02-15T15:59:52;48.85;;;25.38;;
30303;SDS011;17112;48.636;10.152;2023-02-15T16:02:19;49.83;;;25.13;;
30303;SDS011;17112;48.636;10.152;2023-02-15T16:04:45;43.42;;;24.70;;
30303;SDS011;17112;48.636;10.152;2023-02-15T16:09:41;41.58;;;24.23;;
30303;SDS011;17112;48.636;10.152;2023-02-15T16:12:19;43.83;;;22.23;;
30303;SDS011;17112;48.636;10.152;2023-02-15T16:14:45;43.45;;;23.35;;
30303;SDS011;17112;48.636;10.152;2023-02-15T16:17:26;43.13;;;23.42;;
30303;SDS011;17112;48.636;10.152;2023-02-15T16:20:00;43.33;;;23.50;;
30303;SDS011;17112;48.636;10.152;2023-02-15T16:22:32;42.22;;;22.13;;
30303;SDS011;17112;48.636;10.152;2023-02-15T16:27:42;37.33;;;21.05;;
30303;SDS011;17112;48.636;10.152;2023-02-15T16:30:43;37.33;;;20.67;;
30303;SDS011;17112;48.636;10.152;2023-02-15T16:35:35;37.33;;;22.00;;
30303;SDS011;17112;48.636;10.152;2023-02-15T16:38:03;37.00;;;21.85;;
30303;SDS011;17112;48.636;10.152;2023-02-15T16:40:40;33.70;;;20.23;;
30303;SDS011;17112;48.636;10.152;2023-02-15T16:43:13;38.60;;;21.00;;
30303;SDS011;17112;48.636;10.152;2023-02-15T16:48:13;41.72;;;17.98;;
30303;SDS011;17112;48.636;10.152;2023-02-15T16:50:46;35.22;;;19.63;;
30303;SDS011;17112;48.636;10.152;2023-02-15T16:53:16;38.22;;;19.63;;
30303;SDS011;17112;48.636;10.152;2023-02-15T16:55:50;47.45;;;21.70;;
30303;SDS011;17112;48.636;10.152;2023-02-15T16:58:19;45.72;;;19.92;;
30303;SDS011;17112;48.636;10.152;2023-02-15T17:00:59;64.18;;;20.80;;
30303;SDS011;17112;48.636;10.152;2023-02-15T17:03:27;46.50;;;20.52;;
30303;SDS011;17112;48.636;10.152;2023-02-15T17:05:57;60.20;;;21.70;;
30303;SDS011;17112;48.636;10.152;2023-02-15T17:08:25;46.92;;;19.35;;
30303;SDS011;17112;48.636;10.152;2023-02-15T17:16:34;69.78;;;19.10;;
30303;SDS011;17112;48.636;10.152;2023-02-15T17:19:03;83.72;;;20.25;;
30303;SDS011;17112;48.636;10.152;2023-02-15T17:21:40;63.30;;;19.13;;
30303;SDS011;17112;48.636;10.152;2023-02-15T17:24:15;69.65;;;20.70;;
30303;SDS011;17112;48.636;10.152;2023-02-15T17:26:45;83.30;;;19.55;;
30303;SDS011;17112;48.636;10.152;2023-02-15T17:31:46;80.65;;;16.15;;
30303;SDS011;17112;48.636;10.152;2023-02-15T17:37:04;40.03;;;18.13;;
30303;SDS011;17112;48.636;10.152;2023-02-15T17:39:37;119.80;;;17.92;;
30303;SDS011;17112;48.636;10.152;2023-02-15T17:42:02;98.88;;;18.48;;
30303;SDS011;17112;48.636;10.152;2023-02-15T17:44:28;111.75;;;18.55;;
30303;SDS011;17112;48.636;10.152;2023-02-15T17:46:54;102.72;;;18.38;;
30303;SDS011;17112;48.636;10.152;2023-02-15T17:49:23;60.28;;;20.10;;
30303;SDS011;17112;48.636;10.152;2023-02-15T17:51:53;61.97;;;13.20;;
30303;SDS011;17112;48.636;10.152;2023-02-15T17:54:18;83.63;;;17.77;;
30303;SDS011;17112;48.636;10.152;2023-02-15T17:57:05;75.70;;;18.77;;
30303;SDS011;17112;48.636;10.152;2023-02-15T17:59:36;62.75;;;17.92;;
30303;SDS011;17112;48.636;10.152;2023-02-15T18:02:21;57.75;;;17.48;;
30303;SDS011;17112;48.636;10.152;2023-02-15T18:05:07;57.10;;;12.68;;
30303;SDS011;17112;48.636;10.152;2023-02-15T18:07:58;113.22;;;16.40;;
30303;SDS011;17112;48.636;10.152;2023-02-15T18:13:27;132.07;;;16.98;;
30303;SDS011;17112;48.636;10.152;2023-02-15T18:15:52;106.40;;;20.02;;
30303;SDS011;17112;48.636;10.152;2023-02-15T18:18:19;91.68;;;18.40;;
30303;SDS011;17112;48.636;10.152;2023-02-15T18:20:45;89.63;;;16.85;;
30303;SDS011;17112;48.636;10.152;2023-02-15T18:23:11;65.97;;;17.60;;
30303;SDS011;17112;48.636;10.152;2023-02-15T18:25:38;80.60;;;18.40;;
30303;SDS011;17112;48.636;10.152;2023-02-15T18:28:04;98.03;;;18.05;;
30303;SDS011;17112;48.636;10.152;2023-02-15T18:30:30;67.53;;;18.88;;
30303;SDS011;17112;48.636;10.152;2023-02-15T18:32:57;82.45;;;20.88;;
30303;SDS011;17112;48.636;10.152;2023-02-15T18:35:25;114.70;;;21.58;;